Time;durP1;ratioP1;P1;durP2;ratioP2;P2;SDS_P1;SDS_P2;PMS_P1;PMS_P2;Temp;Humidity;BMP_temperature;BMP_pressure;BME280_temperature;BME280_humidity;BME280_pressure;Samples;Min_cycle;Max_cycle;Signal;HPM_P1;HPM_P2
2021/07/16 00:01:56;;;;;;;4.95;2.72;;;614.90;1920.00;;;;;;4975001;28;20066;-59
2021/07/16 00:04:21;;;;;;;5.90;3.13;;;614.90;1920.00;;;;;;4974567;28;20444;-60
2021/07/16 00:06:47;;;;;;;6.28;2.55;;;614.80;1920.00;;;;;;4974720;28;20039;-59
2021/07/16 00:09:14;;;;;;;7.15;2.38;;;614.80;1945.60;;;;;;4974664;28;20388;-59
2021/07/16 00:11:40;;;;;;;6.28;2.28;;;614.70;1971.20;;;;;;4974836;28;20111;-59
2021/07/16 00:14:06;;;;;;;8.02;2.47;;;614.60;1971.20;;;;;;4974574;28;20038;-59
2021/07/16 00:16:32;;;;;;;6.10;2.65;;;614.60;1971.20;;;;;;4974587;28;20384;-59
2021/07/16 00:18:59;;;;;;;7.20;2.80;;;614.50;1996.80;;;;;;4974597;28;20473;-59
2021/07/16 00:21:24;;;;;;;4.43;2.58;;;614.50;1996.80;;;;;;4974927;28;20106;-60
2021/07/16 00:23:51;;;;;;;7.32;2.67;;;614.40;1996.80;;;;;;4974697;28;20485;-60
2021/07/16 00:26:17;;;;;;;6.03;2.88;;;614.40;1996.80;;;;;;4976530;28;20493;-59
2021/07/16 00:28:44;;;;;;;4.88;2.70;;;589.70;1996.80;;;;;;4978480;28;20473;-59
2021/07/16 00:31:10;;;;;;;5.75;2.42;;;589.70;1996.80;;;;;;4978565;28;20392;-59
2021/07/16 00:33:36;;;;;;;5.93;2.65;;;589.70;1996.80;;;;;;4978202;28;20035;-59
2021/07/16 00:36:03;;;;;;;6.07;2.80;;;589.60;2022.40;;;;;;4978050;28;20127;-59
2021/07/16 00:38:28;;;;;;;5.72;2.67;;;589.60;2022.40;;;;;;4978462;28;20031;-59
2021/07/16 00:40:55;;;;;;;5.10;2.90;;;589.60;2022.40;;;;;;4978437;28;20038;-58
2021/07/16 00:43:21;;;;;;;5.75;3.05;;;589.50;2048.00;;;;;;4978228;28;20034;-58
2021/07/16 00:45:46;;;;;;;8.68;2.90;;;589.40;2048.00;;;;;;4978469;28;20070;-58
2021/07/16 00:48:12;;;;;;;6.18;2.78;;;589.40;2048.00;;;;;;4978067;28;20030;-58
2021/07/16 00:50:41;;;;;;;8.70;3.22;;;589.30;2048.00;;;;;;4978063;28;20031;-59
2021/07/16 00:53:14;;;;;;;6.82;3.30;;;589.30;2048.00;;;;;;4978111;28;20035;-58
2021/07/16 00:55:41;;;;;;;7.00;3.17;;;589.20;2073.60;;;;;;4978094;28;20023;-59
2021/07/16 00:58:08;;;;;;;7.00;3.00;;;589.20;2073.60;;;;;;4977971;28;20030;-59
2021/07/16 01:00:34;;;;;;;9.05;2.80;;;589.20;2073.60;;;;;;4977963;28;20050;-61
2021/07/16 01:03:00;;;;;;;7.25;3.25;;;589.20;2073.60;;;;;;4977936;28;20492;-60
2021/07/16 01:05:26;;;;;;;6.55;3.15;;;589.20;2073.60;;;;;;4977315;28;20030;-59
2021/07/16 01:07:52;;;;;;;8.27;3.50;;;589.10;2073.60;;;;;;4977904;28;20358;-59
2021/07/16 01:10:20;;;;;;;6.72;2.95;;;589.10;2073.60;;;;;;4977938;28;20041;-59
2021/07/16 01:12:51;;;;;;;8.60;3.15;;;589.10;2073.60;;;;;;4977651;28;20061;-58
2021/07/16 01:15:21;;;;;;;4.70;2.80;;;589.10;2073.60;;;;;;4977972;28;20054;-58
2021/07/16 01:17:48;;;;;;;5.78;2.97;;;589.00;2099.20;;;;;;4977780;28;20042;-58
2021/07/16 01:20:19;;;;;;;4.60;2.70;;;589.00;2099.20;;;;;;4977425;28;20123;-58
2021/07/16 01:22:46;;;;;;;5.60;3.03;;;589.00;2099.20;;;;;;4977636;28;20029;-57
2021/07/16 01:25:15;;;;;;;10.05;2.90;;;588.90;2124.80;;;;;;4977218;28;20026;-59
2021/07/16 01:27:44;;;;;;;6.30;3.30;;;588.90;2099.20;;;;;;4977438;28;20033;-58
2021/07/16 01:30:11;;;;;;;6.70;2.92;;;588.90;2124.80;;;;;;4977599;28;20034;-58
2021/07/16 01:32:38;;;;;;;9.45;3.42;;;588.90;2124.80;;;;;;4977585;28;20027;-58
2021/07/16 01:35:07;;;;;;;5.35;3.17;;;588.80;2124.80;;;;;;4977135;28;20121;-58
2021/07/16 01:37:35;;;;;;;8.85;3.47;;;588.80;2124.80;;;;;;4976825;28;20042;-58
2021/07/16 01:40:03;;;;;;;6.30;3.35;;;588.80;2150.40;;;;;;4977067;28;20031;-57
2021/07/16 01:42:37;;;;;;;6.47;3.22;;;564.10;2150.40;;;;;;4977098;28;20027;-58
2021/07/16 01:45:06;;;;;;;7.30;3.80;;;564.10;2176.00;;;;;;4977257;28;20124;-58
2021/07/16 01:47:32;;;;;;;7.13;4.20;;;564.10;2176.00;;;;;;4976957;28;20110;-58
2021/07/16 01:49:57;;;;;;;5.50;3.92;;;564.00;2176.00;;;;;;4977078;28;20122;-59
2021/07/16 01:52:23;;;;;;;5.85;3.50;;;564.00;2176.00;;;;;;4976857;28;20030;-58
2021/07/16 01:54:49;;;;;;;6.40;3.70;;;564.00;2201.60;;;;;;4977143;28;20034;-58
2021/07/16 01:57:15;;;;;;;8.05;3.60;;;564.00;2201.60;;;;;;4977110;28;20588;-59
2021/07/16 01:59:41;;;;;;;5.07;3.50;;;564.00;2201.60;;;;;;4976810;28;20038;-58
2021/07/16 02:02:07;;;;;;;7.60;4.07;;;564.00;2201.60;;;;;;4977031;28;20027;-58
2021/07/16 02:04:33;;;;;;;7.47;4.07;;;563.90;2201.60;;;;;;4976822;28;20033;-59
2021/07/16 02:07:00;;;;;;;5.90;3.90;;;563.90;2201.60;;;;;;4976868;28;20420;-58
2021/07/16 02:09:26;;;;;;;7.10;3.97;;;563.90;2227.20;;;;;;4976770;28;20073;-59
2021/07/16 02:11:57;;;;;;;8.02;4.00;;;563.80;2227.20;;;;;;4976571;28;20037;-58
2021/07/16 02:14:24;;;;;;;5.25;3.78;;;563.80;2227.20;;;;;;4976516;28;20031;-58
2021/07/16 02:16:50;;;;;;;6.03;3.92;;;563.70;2252.80;;;;;;4976657;28;20073;-59
2021/07/16 02:19:16;;;;;;;6.40;3.95;;;563.70;2252.80;;;;;;4976655;28;20400;-58
2021/07/16 02:21:42;;;;;;;6.55;4.00;;;563.70;2252.80;;;;;;4976331;28;20038;-59
2021/07/16 02:24:07;;;;;;;7.40;4.10;;;563.60;2278.40;;;;;;4976399;28;20034;-58
2021/07/16 02:26:35;;;;;;;7.80;4.35;;;563.60;2278.40;;;;;;4976488;28;20042;-58
2021/07/16 02:29:01;;;;;;;6.65;4.05;;;563.60;2278.40;;;;;;4976411;28;20468;-59
2021/07/16 02:31:27;;;;;;;6.97;3.92;;;563.50;2278.40;;;;;;4976478;28;20033;-59
2021/07/16 02:33:53;;;;;;;6.72;4.40;;;563.50;2278.40;;;;;;4976107;28;20045;-59
2021/07/16 02:36:19;;;;;;;7.75;4.47;;;563.50;2278.40;;;;;;4976213;28;20075;-58
2021/07/16 02:38:45;;;;;;;9.13;4.43;;;563.50;2278.40;;;;;;4976116;28;20031;-58
2021/07/16 02:41:11;;;;;;;8.10;3.90;;;563.50;2304.00;;;;;;4976147;28;20033;-58
2021/07/16 02:43:38;;;;;;;6.28;3.92;;;563.50;2304.00;;;;;;4976583;28;20102;-59
2021/07/16 02:46:04;;;;;;;7.88;4.30;;;563.50;2304.00;;;;;;4976098;28;20031;-58
2021/07/16 02:48:30;;;;;;;7.70;4.60;;;563.50;2278.40;;;;;;4975792;28;20428;-58
2021/07/16 02:50:56;;;;;;;7.05;4.75;;;563.50;2278.40;;;;;;4975268;28;20029;-58
2021/07/16 02:53:22;;;;;;;8.57;4.72;;;563.50;2278.40;;;;;;4975897;28;20042;-58
2021/07/16 02:55:49;;;;;;;10.50;4.63;;;563.50;2304.00;;;;;;4975755;28;20022;-58
2021/07/16 02:58:15;;;;;;;6.10;4.28;;;563.50;2304.00;;;;;;4975882;28;20593;-59
2021/07/16 03:00:42;;;;;;;8.48;4.40;;;563.50;2304.00;;;;;;4975669;28;20486;-61
2021/07/16 03:03:09;;;;;;;8.63;4.85;;;563.50;2304.00;;;;;;4975797;28;20073;-58
2021/07/16 03:05:35;;;;;;;8.40;4.72;;;563.50;2304.00;;;;;;4975523;28;20027;-59
2021/07/16 03:08:03;;;;;;;7.32;4.50;;;563.40;2304.00;;;;;;4975740;28;20039;-59
2021/07/16 03:10:31;;;;;;;7.18;4.20;;;563.40;2304.00;;;;;;4975695;28;20023;-59
2021/07/16 03:12:59;;;;;;;6.97;4.32;;;563.30;2304.00;;;;;;4975328;28;20484;-58
2021/07/16 03:15:26;;;;;;;7.50;4.40;;;563.30;2304.00;;;;;;4975482;28;20416;-59
2021/07/16 03:17:53;;;;;;;10.82;4.45;;;563.30;2304.00;;;;;;4975311;28;20031;-59
2021/07/16 03:20:23;;;;;;;7.80;4.55;;;563.20;2304.00;;;;;;4975268;28;20053;-59
2021/07/16 03:22:49;;;;;;;6.15;4.55;;;563.30;2304.00;;;;;;4975493;28;20022;-59
2021/07/16 03:25:17;;;;;;;6.05;4.30;;;563.20;2304.00;;;;;;4975555;28;20023;-58
2021/07/16 03:27:44;;;;;;;7.30;4.20;;;563.30;2304.00;;;;;;4975334;28;20031;-59
2021/07/16 03:30:12;;;;;;;7.45;4.35;;;563.30;2304.00;;;;;;4974827;28;20033;-58
2021/07/16 03:32:38;;;;;;;8.77;4.57;;;563.30;2304.00;;;;;;4975217;28;20031;-58
2021/07/16 03:35:06;;;;;;;7.68;4.28;;;563.30;2304.00;;;;;;4974996;28;20098;-59
2021/07/16 03:37:31;;;;;;;16.17;4.95;;;563.30;2304.00;;;;;;4975150;28;20023;-58
2021/07/16 03:39:57;;;;;;;5.90;4.43;;;563.30;2304.00;;;;;;4974897;28;20062;-59
2021/07/16 03:42:23;;;;;;;8.35;4.60;;;563.30;2304.00;;;;;;4975422;28;20027;-58
2021/07/16 03:44:49;;;;;;;11.18;4.93;;;563.40;2304.00;;;;;;4975235;28;20432;-59
2021/07/16 03:47:15;;;;;;;7.90;4.60;;;563.40;2278.40;;;;;;4975251;28;20026;-59
2021/07/16 03:49:42;;;;;;;9.68;4.57;;;563.40;2278.40;;;;;;4974879;28;20023;-58
2021/07/16 03:52:08;;;;;;;8.05;4.55;;;563.50;2278.40;;;;;;4975177;28;20481;-59
2021/07/16 03:54:36;;;;;;;9.82;4.90;;;563.50;2278.40;;;;;;4974917;28;20483;-58
2021/07/16 03:57:05;;;;;;;7.82;4.70;;;563.50;2278.40;;;;;;4975180;28;20031;-59
2021/07/16 03:59:32;;;;;;;7.45;4.65;;;563.50;2278.40;;;;;;4975060;28;20027;-58
2021/07/16 04:01:57;;;;;;;8.18;5.00;;;563.60;2278.40;;;;;;4974515;28;20031;-59
2021/07/16 04:04:23;;;;;;;8.90;4.80;;;563.70;2278.40;;;;;;4974817;28;20163;-58
2021/07/16 04:06:53;;;;;;;10.50;4.60;;;563.70;2252.80;;;;;;4974793;28;20041;-58
2021/07/16 04:09:27;;;;;;;8.98;4.35;;;563.70;2252.80;;;;;;4974792;28;20342;-58
2021/07/16 04:12:14;;;;;;;8.55;4.50;;;563.90;2252.80;;;;;;4974651;28;20027;-59
2021/07/16 04:14:45;;;;;;;11.73;4.72;;;563.70;2252.80;;;;;;4975045;28;20031;-59
2021/07/16 04:17:14;;;;;;;9.30;5.25;;;563.80;2252.80;;;;;;4974719;28;20042;-59
2021/07/16 04:19:41;;;;;;;7.32;4.55;;;563.80;2252.80;;;;;;4974647;28;20484;-59
2021/07/16 04:22:07;;;;;;;11.30;4.70;;;563.80;2252.80;;;;;;4974646;28;20023;-59
2021/07/16 04:24:37;;;;;;;8.82;5.15;;;563.90;2252.80;;;;;;4974624;28;20037;-58
2021/07/16 04:27:05;;;;;;;10.43;5.40;;;564.00;2252.80;;;;;;4974718;28;20057;-59
2021/07/16 04:29:31;;;;;;;9.20;5.10;;;564.00;2252.80;;;;;;4974482;28;20027;-59
2021/07/16 04:32:02;;;;;;;7.70;5.35;;;564.00;2278.40;;;;;;4974564;28;20030;-58
2021/07/16 04:34:33;;;;;;;8.88;5.25;;;564.00;2278.40;;;;;;4956810;28;20081;-59
2021/07/16 04:37:00;;;;;;;8.20;5.55;;;564.10;2278.40;;;;;;4974570;28;20473;-58
2021/07/16 04:39:26;;;;;;;7.40;5.60;;;588.80;2252.80;;;;;;4974747;28;20031;-59
2021/07/16 04:41:52;;;;;;;6.50;5.00;;;588.90;2252.80;;;;;;4974425;28;20078;-59
2021/07/16 04:44:18;;;;;;;5.50;4.72;;;589.00;2227.20;;;;;;4974445;28;20035;-59
2021/07/16 04:46:43;;;;;;;7.63;5.20;;;589.10;2227.20;;;;;;4974472;28;20495;-59
2021/07/16 04:49:09;;;;;;;8.45;5.70;;;589.20;2227.20;;;;;;4957023;28;20165;-58
2021/07/16 04:51:36;;;;;;;10.77;5.57;;;589.10;2227.20;;;;;;4974376;28;20027;-59
2021/07/16 04:54:04;;;;;;;7.80;5.60;;;589.20;2201.60;;;;;;4974445;28;20373;-59
2021/07/16 04:56:30;;;;;;;8.60;5.40;;;589.30;2201.60;;;;;;4974456;28;20035;-59
2021/07/16 04:58:56;;;;;;;8.60;5.70;;;589.50;2201.60;;;;;;4974424;28;20500;-59
2021/07/16 05:01:24;;;;;;;9.65;5.57;;;589.60;2176.00;;;;;;4974418;28;20027;-58
2021/07/16 05:03:51;;;;;;;6.55;5.25;;;589.70;2201.60;;;;;;4974268;28;20034;-59
2021/07/16 05:06:18;;;;;;;7.35;5.28;;;589.70;2176.00;;;;;;4974317;28;20376;-59
2021/07/16 05:08:44;;;;;;;9.63;5.20;;;614.40;2176.00;;;;;;4974296;28;20033;-59
2021/07/16 05:11:10;;;;;;;9.55;5.60;;;614.40;2176.00;;;;;;4974042;28;20023;-59
2021/07/16 05:13:37;;;;;;;7.32;5.10;;;614.40;2176.00;;;;;;4976710;28;20039;-60
2021/07/16 05:16:08;;;;;;;7.82;5.22;;;614.40;2176.00;;;;;;4977828;28;20081;-58
2021/07/16 05:18:34;;;;;;;9.60;5.47;;;614.40;2176.00;;;;;;4977782;28;20105;-59
2021/07/16 05:21:01;;;;;;;9.30;6.10;;;614.50;2150.40;;;;;;4977137;28;20064;-59
2021/07/16 05:23:28;;;;;;;9.57;5.82;;;614.60;2176.00;;;;;;4977787;28;20444;-60
2021/07/16 05:25:54;;;;;;;11.25;6.00;;;614.60;2176.00;;;;;;4977808;28;20023;-59
2021/07/16 05:28:20;;;;;;;10.75;6.03;;;614.60;2176.00;;;;;;4977717;28;20420;-59
2021/07/16 05:30:47;;;;;;;8.80;5.85;;;614.70;2150.40;;;;;;4977497;28;20023;-59
2021/07/16 05:33:13;;;;;;;10.63;5.65;;;614.70;2124.80;;;;;;4977220;28;20035;-59
2021/07/16 05:35:38;;;;;;;10.32;6.00;;;614.80;2150.40;;;;;;4977089;28;20760;-59
2021/07/16 05:38:05;;;;;;;10.38;6.10;;;614.80;2124.80;;;;;;4977529;28;20104;-60
2021/07/16 05:40:31;;;;;;;9.55;5.63;;;614.80;2150.40;;;;;;4977475;28;20023;-58
2021/07/16 05:42:59;;;;;;;9.02;5.57;;;614.70;2099.20;;;;;;4977128;28;20106;-59
2021/07/16 05:45:24;;;;;;;8.90;5.50;;;615.10;2099.20;;;;;;4977115;28;20115;-58
2021/07/16 05:47:50;;;;;;;11.43;5.80;;;615.30;2099.20;;;;;;4976966;28;20082;-59
2021/07/16 05:50:16;;;;;;;8.00;5.50;;;615.30;2099.20;;;;;;4976812;28;20090;-59
2021/07/16 05:52:42;;;;;;;9.95;5.38;;;640.10;2073.60;;;;;;4976980;28;20074;-60
2021/07/16 05:55:08;;;;;;;13.43;5.93;;;640.30;2073.60;;;;;;4977033;28;20543;-59
2021/07/16 05:57:34;;;;;;;9.38;5.60;;;640.50;2022.40;;;;;;4977274;28;20027;-60
2021/07/16 06:00:00;;;;;;;6.72;5.10;;;640.60;1996.80;;;;;;4976871;28;20034;-60
2021/07/16 06:02:26;;;;;;;7.93;4.82;;;640.90;1971.20;;;;;;4976808;28;20026;-60
2021/07/16 06:04:52;;;;;;;12.63;5.30;;;665.60;1996.80;;;;;;4976925;28;20015;-59
2021/07/16 06:07:17;;;;;;;11.57;5.35;;;665.70;1971.20;;;;;;4976894;28;20554;-59
2021/07/16 06:09:45;;;;;;;9.63;5.50;;;665.70;1971.20;;;;;;4976790;28;20409;-59
2021/07/16 06:12:11;;;;;;;8.73;5.50;;;665.80;1971.20;;;;;;4976898;28;20062;-59
2021/07/16 06:14:36;;;;;;;8.45;5.10;;;665.80;1971.20;;;;;;4976738;28;20045;-61
2021/07/16 06:17:02;;;;;;;8.73;5.53;;;665.60;1996.80;;;;;;4976786;28;20475;-60
2021/07/16 06:19:28;;;;;;;7.65;5.30;;;665.80;1996.80;;;;;;4976537;28;20495;-61
2021/07/16 06:21:54;;;;;;;14.90;6.80;;;666.00;1996.80;;;;;;4976583;28;20065;-59
2021/07/16 06:24:19;;;;;;;9.18;5.40;;;666.20;1971.20;;;;;;4976842;28;20058;-61
2021/07/16 06:26:45;;;;;;;13.50;5.60;;;666.00;1971.20;;;;;;4975797;28;20100;-60
2021/07/16 06:29:11;;;;;;;10.40;5.10;;;665.90;1945.60;;;;;;4974923;28;20033;-59
2021/07/16 06:31:37;;;;;;;16.13;4.72;;;666.20;1945.60;;;;;;4975062;28;20022;-58
2021/07/16 06:34:03;;;;;;;7.75;4.38;;;666.20;1920.00;;;;;;4974585;28;20031;-60
2021/07/16 06:36:29;;;;;;;9.95;4.57;;;666.50;1945.60;;;;;;4975453;28;20522;-59
2021/07/16 06:38:55;;;;;;;9.48;4.75;;;691.40;1920.00;;;;;;4975138;28;20034;-59
2021/07/16 06:41:21;;;;;;;10.43;4.57;;;691.50;1843.20;;;;;;4973149;28;20354;-60
2021/07/16 06:43:47;;;;;;;14.13;4.88;;;691.70;1843.20;;;;;;4964457;28;20041;-59
2021/07/16 06:46:14;;;;;;;9.52;4.80;;;691.70;1817.60;;;;;;4973226;28;20074;-60
2021/07/16 06:48:43;;;;;;;7.82;4.65;;;692.00;1792.00;;;;;;4974644;28;20390;-59
2021/07/16 06:51:12;;;;;;;11.50;5.03;;;716.80;1817.60;;;;;;4973674;28;20030;-60
2021/07/16 06:53:38;;;;;;;11.60;4.93;;;716.80;1817.60;;;;;;4973821;28;20117;-60
2021/07/16 06:56:04;;;;;;;9.00;4.68;;;716.90;1792.00;;;;;;4956896;28;20103;-68
2021/07/16 06:58:30;;;;;;;9.95;5.40;;;716.80;1792.00;;;;;;4969832;28;20496;-68
2021/07/16 07:00:56;;;;;;;10.63;5.00;;;716.90;1792.00;;;;;;4971739;28;20067;-66
2021/07/16 07:03:25;;;;;;;13.52;5.22;;;717.10;1766.40;;;;;;4972508;28;20653;-67
2021/07/16 07:05:52;;;;;;;11.02;5.57;;;717.10;1766.40;;;;;;4971949;28;20038;-68
2021/07/16 07:08:18;;;;;;;9.27;5.55;;;717.10;1740.80;;;;;;4971414;28;20042;-64
2021/07/16 07:10:44;;;;;;;11.80;5.70;;;717.30;1766.40;;;;;;4971472;28;20491;-64
2021/07/16 07:13:10;;;;;;;14.98;5.43;;;717.60;1715.20;;;;;;4970973;28;20039;-62
2021/07/16 07:15:36;;;;;;;10.85;5.55;;;717.60;1740.80;;;;;;4972523;28;20031;-65
2021/07/16 07:18:06;;;;;;;11.50;5.50;;;717.60;1740.80;;;;;;4971363;28;20023;-66
2021/07/16 07:20:33;;;;;;;11.23;5.68;;;717.70;1740.80;;;;;;4970990;28;20023;-65
2021/07/16 07:23:00;;;;;;;11.98;5.82;;;717.70;1740.80;;;;;;4972628;28;20069;-65
2021/07/16 07:25:26;;;;;;;11.15;5.57;;;742.50;1740.80;;;;;;4973901;28;20034;-64
2021/07/16 07:27:52;;;;;;;11.43;5.40;;;742.50;1715.20;;;;;;4972423;28;20042;-64
2021/07/16 07:30:19;;;;;;;8.95;5.60;;;742.50;1740.80;;;;;;4972857;28;20027;-67
2021/07/16 07:32:44;;;;;;;11.40;5.72;;;742.70;1792.00;;;;;;4971955;28;20034;-65
2021/07/16 07:35:11;;;;;;;9.15;5.40;;;742.50;1792.00;;;;;;4971266;28;20058;-66
2021/07/16 07:37:37;;;;;;;12.70;6.03;;;742.40;1792.00;;;;;;4971736;28;20027;-65
2021/07/16 07:40:06;;;;;;;8.80;5.25;;;742.40;1792.00;;;;;;4971618;28;20469;-60
2021/07/16 07:42:32;;;;;;;8.50;4.88;;;742.40;1792.00;;;;;;4972156;28;20121;-66
2021/07/16 07:44:58;;;;;;;14.23;4.95;;;742.40;1817.60;;;;;;4972957;28;20181;-65
2021/07/16 07:47:26;;;;;;;7.30;4.93;;;742.50;1766.40;;;;;;4972473;28;20038;-69
2021/07/16 07:49:52;;;;;;;8.00;5.35;;;742.70;1792.00;;;;;;4973612;28;20427;-61
2021/07/16 07:52:18;;;;;;;12.00;5.63;;;742.60;1766.40;;;;;;4972897;28;20121;-63
2021/07/16 07:54:44;;;;;;;8.90;5.22;;;742.80;1740.80;;;;;;4972917;28;20058;-61
2021/07/16 07:57:10;;;;;;;9.98;5.40;;;742.90;1740.80;;;;;;4972089;28;20035;-61
2021/07/16 07:59:36;;;;;;;15.05;5.70;;;743.20;1689.60;;;;;;4973508;28;20031;-61
2021/07/16 08:02:01;;;;;;;10.15;5.68;;;768.00;1664.00;;;;;;4972515;28;20035;-60
2021/07/16 08:04:27;;;;;;;7.93;5.35;;;743.20;1689.60;;;;;;4973312;28;20027;-62
2021/07/16 08:06:53;;;;;;;11.45;5.75;;;743.20;1689.60;;;;;;4972791;28;20073;-63
2021/07/16 08:09:19;;;;;;;11.77;6.10;;;743.30;1689.60;;;;;;4968848;28;20066;-62
2021/07/16 08:11:45;;;;;;;12.25;5.97;;;768.00;1689.60;;;;;;4973099;28;20023;-59
2021/07/16 08:14:10;;;;;;;10.68;5.82;;;768.20;1638.40;;;;;;4974442;28;20042;-62
2021/07/16 08:16:36;;;;;;;11.30;6.10;;;768.30;1638.40;;;;;;4960536;28;20381;-63
2021/07/16 08:19:02;;;;;;;11.55;5.72;;;768.40;1638.40;;;;;;4972571;28;20069;-65
2021/07/16 08:21:28;;;;;;;13.10;5.72;;;768.30;1638.40;;;;;;4971805;28;20043;-60
2021/07/16 08:23:54;;;;;;;12.85;6.25;;;768.40;1612.80;;;;;;4972973;28;20034;-60
2021/07/16 08:26:20;;;;;;;9.80;5.60;;;768.40;1638.40;;;;;;4972583;28;20173;-60
2021/07/16 08:28:46;;;;;;;10.10;5.82;;;768.50;1612.80;;;;;;4972181;28;20392;-65
2021/07/16 08:31:12;;;;;;;12.15;6.70;;;768.80;1587.20;;;;;;4971377;28;20038;-62
2021/07/16 08:33:38;;;;;;;12.60;5.55;;;768.90;1587.20;;;;;;4972112;28;20049;-62
2021/07/16 08:36:04;;;;;;;10.15;5.60;;;793.90;1587.20;;;;;;4988254;28;20038;-63
2021/07/16 08:38:30;;;;;;;10.40;5.80;;;794.10;1587.20;;;;;;4991317;28;20543;-65
2021/07/16 08:40:56;;;;;;;10.77;5.43;;;794.50;1536.00;;;;;;4991980;28;20081;-60
2021/07/16 08:43:24;;;;;;;8.75;5.50;;;819.30;1510.40;;;;;;4992629;28;20037;-60
2021/07/16 08:45:53;;;;;;;10.75;5.57;;;819.20;1561.60;;;;;;4991210;28;20073;-62
2021/07/16 08:48:18;;;;;;;11.20;5.50;;;819.40;1510.40;;;;;;4994257;28;20026;-60
2021/07/16 08:50:44;;;;;;;11.57;5.40;;;819.60;1510.40;;;;;;4995209;28;20563;-69
2021/07/16 08:53:12;;;;;;;11.30;5.70;;;819.70;1484.80;;;;;;4996126;28;20042;-60
2021/07/16 08:55:41;;;;;;;8.93;5.30;;;819.80;1484.80;;;;;;4995246;28;20030;-67
2021/07/16 08:58:07;;;;;;;10.93;5.45;;;820.00;1459.20;;;;;;4984030;28;20042;-64
2021/07/16 09:00:33;;;;;;;9.43;5.22;;;844.80;1459.20;;;;;;4994177;28;20036;-67
2021/07/16 09:03:00;;;;;;;9.93;5.28;;;820.10;1408.00;;;;;;4994824;28;20056;-61
2021/07/16 09:05:37;;;;;;;10.90;5.43;;;820.00;1433.60;;;;;;4995841;28;20026;-69
2021/07/16 09:08:04;;;;;;;11.07;4.90;;;820.10;1433.60;;;;;;4994968;28;20039;-62
2021/07/16 09:10:30;;;;;;;9.45;5.30;;;844.80;1459.20;;;;;;4994923;28;20030;-65
2021/07/16 09:12:59;;;;;;;9.27;5.60;;;845.30;1433.60;;;;;;4995176;28;20040;-66
2021/07/16 09:15:26;;;;;;;11.10;5.10;;;845.60;1408.00;;;;;;4995255;28;20484;-61
2021/07/16 09:18:14;;;;;;;8.32;5.30;;;870.40;1356.80;;;;;;4988737;28;20038;-63
2021/07/16 09:20:40;;;;;;;11.70;5.72;;;845.70;1356.80;;;;;;4993664;28;20479;-64
2021/07/16 09:23:17;;;;;;;9.23;5.30;;;870.40;1331.20;;;;;;4995249;28;20472;-61
2021/07/16 09:25:44;;;;;;;12.45;5.30;;;845.70;1305.60;;;;;;4994633;28;20030;-67
2021/07/16 09:28:23;;;;;;;9.15;5.20;;;870.40;1305.60;;;;;;4995605;28;20022;-62
2021/07/16 09:30:49;;;;;;;10.75;5.72;;;870.40;1305.60;;;;;;4988406;28;20125;-68
2021/07/16 09:33:16;;;;;;;9.68;5.40;;;870.40;1305.60;;;;;;4980426;28;20039;-66
2021/07/16 09:35:43;;;;;;;11.93;5.65;;;870.40;1331.20;;;;;;5007127;28;20045;-62
2021/07/16 09:38:14;;;;;;;8.50;5.38;;;870.40;1280.00;;;;;;5014522;28;20079;-67
2021/07/16 09:40:50;;;;;;;12.73;5.70;;;870.60;1280.00;;;;;;5013838;28;20049;-67
2021/07/16 09:43:19;;;;;;;8.57;5.07;;;870.80;1280.00;;;;;;5014240;28;20099;-68
2021/07/16 09:45:50;;;;;;;7.40;5.07;;;871.20;1254.40;;;;;;5013431;28;20104;-62
2021/07/16 09:48:31;;;;;;;9.50;4.90;;;896.10;1254.40;;;;;;5014339;28;20036;-61
2021/07/16 09:51:10;;;;;;;9.35;5.15;;;896.30;1203.20;;;;;;5014322;28;20059;-62
2021/07/16 09:53:52;;;;;;;10.55;5.40;;;896.50;1177.60;;;;;;5013607;28;20112;-61
2021/07/16 09:56:20;;;;;;;10.77;5.32;;;896.50;1203.20;;;;;;5014316;28;20384;-64
2021/07/16 09:58:47;;;;;;;7.28;5.15;;;896.50;1177.60;;;;;;5013065;28;20519;-63
2021/07/16 10:01:12;;;;;;;12.00;5.43;;;896.40;1177.60;;;;;;5007734;28;20046;-66
2021/07/16 10:03:41;;;;;;;8.05;5.10;;;896.30;1177.60;;;;;;5000334;28;20462;-68
2021/07/16 10:06:13;;;;;;;11.50;5.55;;;871.20;1203.20;;;;;;4998034;28;20387;-65
2021/07/16 10:08:40;;;;;;;7.45;5.60;;;871.10;1228.80;;;;;;5012229;28;20022;-61
2021/07/16 10:11:07;;;;;;;10.80;5.60;;;871.30;1203.20;;;;;;5006550;28;20430;-61
2021/07/16 10:13:35;;;;;;;9.38;5.70;;;896.10;1177.60;;;;;;5004410;28;20072;-61
2021/07/16 10:16:02;;;;;;;10.75;5.63;;;896.30;1177.60;;;;;;5008591;28;20038;-64
2021/07/16 10:18:28;;;;;;;12.48;5.97;;;896.60;1177.60;;;;;;4987782;28;20049;-63
2021/07/16 10:20:56;;;;;;;10.07;5.78;;;896.60;1152.00;;;;;;5001770;28;20053;-61
2021/07/16 10:23:26;;;;;;;8.90;5.90;;;896.30;1177.60;;;;;;5001065;28;20030;-64
2021/07/16 10:25:55;;;;;;;8.65;5.70;;;896.00;1177.60;;;;;;5002048;28;20041;-61
2021/07/16 10:28:41;;;;;;;12.63;6.03;;;871.20;1177.60;;;;;;5002927;28;20014;-66
2021/07/16 10:31:29;;;;;;;12.77;5.93;;;871.20;1203.20;;;;;;4995724;28;20503;-61
2021/07/16 10:33:56;;;;;;;10.88;5.88;;;871.20;1228.80;;;;;;5002032;28;20542;-63
2021/07/16 10:36:37;;;;;;;12.30;6.25;;;896.10;1228.80;;;;;;4986138;28;20082;-62
2021/07/16 10:39:06;;;;;;;11.27;6.35;;;871.20;1228.80;;;;;;4979574;28;20034;-61
2021/07/16 10:41:37;;;;;;;12.32;6.85;;;871.20;1254.40;;;;;;4987692;28;20105;-60
2021/07/16 10:44:11;;;;;;;10.48;5.95;;;871.20;1254.40;;;;;;4975435;28;20037;-62
2021/07/16 10:46:42;;;;;;;12.20;6.38;;;896.30;1177.60;;;;;;4972543;28;20027;-61
2021/07/16 10:49:09;;;;;;;13.25;6.72;;;896.80;1126.40;;;;;;4975461;28;20065;-62
2021/07/16 10:51:36;;;;;;;10.10;6.63;;;921.70;1177.60;;;;;;4972848;28;20066;-62
2021/07/16 10:54:05;;;;;;;16.05;7.60;;;921.90;1177.60;;;;;;4981256;28;20038;-61
2021/07/16 10:56:39;;;;;;;11.55;7.20;;;922.20;1152.00;;;;;;4953919;29;20035;-65
2021/07/16 10:59:05;;;;;;;12.07;6.93;;;922.40;1126.40;;;;;;4955029;28;20485;-61
2021/07/16 11:01:34;;;;;;;16.48;6.90;;;922.20;1152.00;;;;;;4973575;28;20424;-65
2021/07/16 11:04:01;;;;;;;12.50;7.00;;;922.10;1152.00;;;;;;4975131;28;20042;-62
2021/07/16 11:06:51;;;;;;;11.60;6.57;;;922.30;1152.00;;;;;;4980390;28;20039;-61
2021/07/16 11:09:41;;;;;;;11.05;7.35;;;922.40;1100.80;;;;;;4974647;28;20065;-62
2021/07/16 11:12:26;;;;;;;9.93;7.22;;;947.20;1100.80;;;;;;4972645;28;20404;-60
2021/07/16 11:14:54;;;;;;;9.73;6.60;;;947.90;1049.60;;;;;;4972996;28;20046;-61
2021/07/16 11:17:30;;;;;;;12.70;7.10;;;972.80;1049.60;;;;;;4968798;28;20054;-64
2021/07/16 11:20:13;;;;;;;12.30;6.53;;;948.00;1024.00;;;;;;4973993;28;20086;-66
2021/07/16 11:22:58;;;;;;;;;;;948.00;1024.00;;;;;;4953963;29;20185;-61
2021/07/16 11:25:24;;;;;;;9.32;6.75;;;947.90;1049.60;;;;;;4955441;28;20357;-64
2021/07/16 11:27:49;;;;;;;11.73;7.43;;;948.00;1049.60;;;;;;4992378;28;20046;-64
2021/07/16 11:30:15;;;;;;;12.70;6.50;;;972.80;1075.20;;;;;;4989837;28;20025;-63
2021/07/16 11:32:41;;;;;;;9.90;6.65;;;948.00;1049.60;;;;;;4972669;28;20511;-62
2021/07/16 11:35:09;;;;;;;11.90;7.10;;;948.00;1049.60;;;;;;4981418;28;20137;-65
2021/07/16 11:37:41;;;;;;;9.98;7.10;;;948.10;1024.00;;;;;;5002754;28;20037;-64
2021/07/16 11:40:09;;;;;;;13.23;7.30;;;972.90;1075.20;;;;;;5012322;28;20030;-60
2021/07/16 11:43:02;;;;;;;13.63;7.25;;;973.00;1100.80;;;;;;5000392;28;20042;-61
2021/07/16 11:45:34;;;;;;;13.68;6.63;;;973.10;1024.00;;;;;;4990324;28;20440;-61
2021/07/16 11:48:17;;;;;;;14.48;7.28;;;973.10;1024.00;;;;;;4993224;28;20026;-60
2021/07/16 11:50:46;;;;;;;11.73;6.78;;;973.30;998.40;;;;;;4973750;28;20429;-65
2021/07/16 11:53:15;;;;;;;11.93;7.57;;;973.50;1024.00;;;;;;4993493;28;20131;-65
2021/07/16 11:55:44;;;;;;;11.55;7.05;;;973.50;1024.00;;;;;;4991140;28;20022;-61
2021/07/16 11:58:10;;;;;;;13.85;7.43;;;973.30;1024.00;;;;;;4992630;28;20498;-62
2021/07/16 12:00:40;;;;;;;8.60;6.85;;;973.30;1024.00;;;;;;4990366;28;20030;-62
2021/07/16 12:03:23;;;;;;;11.05;6.60;;;973.50;1024.00;;;;;;4992505;28;20019;-67
2021/07/16 12:05:50;;;;;;;;;;;973.60;998.40;;;;;;4991826;28;20058;-65
2021/07/16 12:08:26;;;;;;;13.35;7.00;;;973.40;998.40;;;;;;4992352;28;19910;-60
2021/07/16 12:11:10;;;;;;;9.95;6.82;;;973.50;998.40;;;;;;4991248;28;20480;-58
2021/07/16 12:13:37;;;;;;;16.83;7.47;;;973.40;1024.00;;;;;;4991166;28;20043;-60
2021/07/16 12:16:05;;;;;;;11.27;7.03;;;973.10;1049.60;;;;;;4987395;28;20481;-61
2021/07/16 12:18:31;;;;;;;11.02;7.05;;;973.10;1024.00;;;;;;4991390;28;20027;-63